EZY1EU LGRP-EGNT
Flight info
| Callsign | EZY1EU |
|---|---|
| Flight time | N/A |
| Altitude | 34000 |
| Route | VANES UM601 ADESO UN133 RIGRO DCT ESOPO DCT FSK DCT DISOR DCT LONTA UL608 DOLEV DCT LIMRA DCT RENKA DCT RUDNO DCT MASEK DCT AMGOD DCT MIMVA L602 NALAX L46 RIMTO |
| Aircraft | A320/M-SDE3FGHIRWY/LB1 |
Departure
| Time | 2026-04-27 16:06 |
|---|---|
| Airport | Rhodes International Airport "Diagoras" (LGRP) |
Arrival
| Time | N/A |
|---|---|
| Airport | Newcastle International Airport (EGNT) |
| Time | Latitude | Longitude | Altitude | Speed | Heading |
|---|---|---|---|---|---|
| 2026-04-27 15:36 | 36.40379 | 28.09184 | 28 ft | 0 kts | 159° |
| 2026-04-27 16:00 | 36.40381 | 28.09184 | 28 ft | 2 kts | 159° |
| 2026-04-27 16:00 | 36.40404 | 28.09171 | 28 ft | 4 kts | 152° |
| 2026-04-27 16:00 | 36.40426 | 28.09153 | 28 ft | 4 kts | 130° |
| 2026-04-27 16:00 | 36.40436 | 28.09129 | 28 ft | 3 kts | 73° |
| 2026-04-27 16:01 | 36.40435 | 28.09125 | 28 ft | 0 kts | 70° |
| 2026-04-27 16:02 | 36.40440 | 28.09143 | 28 ft | 8 kts | 70° |
| 2026-04-27 16:02 | 36.40460 | 28.09211 | 28 ft | 7 kts | 70° |
| 2026-04-27 16:03 | 36.40480 | 28.09281 | 28 ft | 12 kts | 70° |
| 2026-04-27 16:03 | 36.40541 | 28.09375 | 28 ft | 17 kts | 33° |
| 2026-04-27 16:03 | 36.40617 | 28.09510 | 28 ft | 20 kts | 69° |
| 2026-04-27 16:03 | 36.40662 | 28.09666 | 28 ft | 18 kts | 70° |
| 2026-04-27 16:04 | 36.40707 | 28.09823 | 28 ft | 19 kts | 70° |
| 2026-04-27 16:04 | 36.40749 | 28.09968 | 28 ft | 17 kts | 69° |
| 2026-04-27 16:04 | 36.40789 | 28.10099 | 28 ft | 18 kts | 70° |
| 2026-04-27 16:04 | 36.40836 | 28.10262 | 28 ft | 22 kts | 70° |
| 2026-04-27 16:05 | 36.40895 | 28.10424 | 28 ft | 17 kts | 29° |
| 2026-04-27 16:05 | 36.40990 | 28.10376 | 27 ft | 16 kts | 299° |
| 2026-04-27 16:05 | 36.41014 | 28.10243 | 27 ft | 16 kts | 263° |
| 2026-04-27 16:05 | 36.40946 | 28.10005 | 27 ft | 57 kts | 250° |
| 2026-04-27 16:06 | 36.40737 | 28.09295 | 30 ft | 115 kts | 250° |
| 2026-04-27 16:06 | 36.40408 | 28.08171 | 36 ft | 160 kts | 250° |
| 2026-04-27 16:06 | 36.40027 | 28.06876 | 643 ft | 158 kts | 249° |
| 2026-04-27 16:06 | 36.39783 | 28.05537 | 1153 ft | 163 kts | 266° |
| 2026-04-27 16:07 | 36.39677 | 28.04052 | 1386 ft | 183 kts | 268° |
| 2026-04-27 16:07 | 36.39586 | 28.02384 | 1545 ft | 205 kts | 268° |
| 2026-04-27 16:07 | 36.39477 | 28.00509 | 1763 ft | 230 kts | 269° |
| 2026-04-27 16:07 | 36.39346 | 27.98436 | 2101 ft | 250 kts | 268° |
| 2026-04-27 16:08 | 36.39193 | 27.96240 | 2722 ft | 259 kts | 268° |
| 2026-04-27 16:08 | 36.39026 | 27.93992 | 3417 ft | 265 kts | 266° |
| 2026-04-27 16:08 | 36.38847 | 27.91704 | 4138 ft | 269 kts | 266° |
| 2026-04-27 16:08 | 36.38668 | 27.89377 | 4875 ft | 272 kts | 269° |
| 2026-04-27 16:09 | 36.38817 | 27.87035 | 5564 ft | 275 kts | 278° |
| 2026-04-27 16:09 | 36.39353 | 27.82276 | 6931 ft | 282 kts | 278° |
| 2026-04-27 16:09 | 36.39629 | 27.79854 | 7616 ft | 285 kts | 278° |
| 2026-04-27 16:10 | 36.40182 | 27.74972 | 9065 ft | 287 kts | 278° |
| 2026-04-27 16:10 | 36.40739 | 27.69999 | 10246 ft | 300 kts | 278° |
| 2026-04-27 16:11 | 36.41036 | 27.67340 | 10375 ft | 322 kts | 278° |
| 2026-04-27 16:11 | 36.41682 | 27.61511 | 10856 ft | 353 kts | 278° |
| 2026-04-27 16:12 | 36.42346 | 27.55469 | 12068 ft | 357 kts | 278° |
| 2026-04-27 16:12 | 36.42684 | 27.52401 | 12669 ft | 360 kts | 279° |
| 2026-04-27 16:12 | 36.44204 | 27.46541 | 13833 ft | 362 kts | 306° |
| 2026-04-27 16:13 | 36.45854 | 27.44168 | 14333 ft | 364 kts | 313° |
| 2026-04-27 16:13 | 36.49303 | 27.39507 | 15372 ft | 368 kts | 313° |
| 2026-04-27 16:13 | 36.51054 | 27.37145 | 15904 ft | 370 kts | 313° |
| 2026-04-27 16:14 | 36.54552 | 27.32402 | 16900 ft | 375 kts | 313° |
| 2026-04-27 16:14 | 36.58077 | 27.27615 | 17826 ft | 380 kts | 313° |
| 2026-04-27 16:15 | 36.61667 | 27.22729 | 18691 ft | 385 kts | 313° |
| 2026-04-27 16:15 | 36.65300 | 27.17775 | 19508 ft | 389 kts | 313° |
| 2026-04-27 16:16 | 36.68960 | 27.12777 | 20312 ft | 392 kts | 313° |
| 2026-04-27 16:16 | 36.72660 | 27.07733 | 21073 ft | 396 kts | 313° |
| 2026-04-27 16:17 | 36.76395 | 27.02630 | 21822 ft | 400 kts | 312° |
| 2026-04-27 16:17 | 36.80141 | 26.97500 | 22549 ft | 404 kts | 312° |
| 2026-04-27 16:18 | 36.83940 | 26.92272 | 23251 ft | 408 kts | 312° |
| 2026-04-27 16:18 | 36.87772 | 26.86994 | 23868 ft | 412 kts | 312° |
| 2026-04-27 16:19 | 36.89707 | 26.84333 | 24134 ft | 414 kts | 312° |
| 2026-04-27 16:19 | 36.91645 | 26.81663 | 24409 ft | 416 kts | 312° |
| 2026-04-27 16:20 | 36.97506 | 26.73564 | 25225 ft | 421 kts | 312° |
| 2026-04-27 16:20 | 36.99474 | 26.70843 | 25500 ft | 422 kts | 312° |
| 2026-04-27 16:20 | 37.03437 | 26.65368 | 26051 ft | 425 kts | 312° |
| 2026-04-27 16:21 | 37.05424 | 26.62619 | 26306 ft | 427 kts | 311° |
| 2026-04-27 16:21 | 37.11427 | 26.54269 | 27046 ft | 432 kts | 311° |
| 2026-04-27 16:22 | 37.13444 | 26.51458 | 27278 ft | 434 kts | 311° |
| 2026-04-27 16:22 | 37.17496 | 26.45817 | 27746 ft | 437 kts | 311° |
| 2026-04-27 16:22 | 37.19532 | 26.42980 | 27976 ft | 438 kts | 311° |
| 2026-04-27 16:23 | 37.21574 | 26.40133 | 28209 ft | 440 kts | 311° |
| 2026-04-27 16:23 | 37.25671 | 26.34409 | 28646 ft | 442 kts | 311° |
| 2026-04-27 16:23 | 37.27731 | 26.31526 | 28858 ft | 444 kts | 311° |
| 2026-04-27 16:24 | 37.29792 | 26.28634 | 29075 ft | 445 kts | 311° |
| 2026-04-27 16:24 | 37.33880 | 26.22894 | 29730 ft | 442 kts | 311° |
| 2026-04-27 16:25 | 37.37968 | 26.17151 | 30331 ft | 439 kts | 311° |
| 2026-04-27 16:25 | 37.42038 | 26.11420 | 30835 ft | 438 kts | 311° |
| 2026-04-27 16:26 | 37.46093 | 26.05710 | 31318 ft | 437 kts | 311° |
| 2026-04-27 16:26 | 37.50145 | 26.00004 | 31760 ft | 437 kts | 311° |
| 2026-04-27 16:27 | 37.54185 | 25.94277 | 32223 ft | 436 kts | 311° |
| 2026-04-27 16:27 | 37.60580 | 25.86254 | 33025 ft | 433 kts | 325° |
| 2026-04-27 16:28 | 37.65737 | 25.82283 | 33412 ft | 434 kts | 328° |
| 2026-04-27 16:28 | 37.70898 | 25.78346 | 33878 ft | 433 kts | 328° |
| 2026-04-27 16:29 | 37.78574 | 25.72461 | 34067 ft | 431 kts | 328° |
| 2026-04-27 16:30 | 37.88839 | 25.64576 | 34071 ft | 432 kts | 327° |
| 2026-04-27 16:31 | 38.01422 | 25.54391 | 34088 ft | 428 kts | 325° |
| 2026-04-27 16:32 | 38.08942 | 25.48231 | 34082 ft | 429 kts | 326° |
| 2026-04-27 16:33 | 38.16460 | 25.42100 | 34078 ft | 430 kts | 326° |
| 2026-04-27 16:33 | 38.21493 | 25.37980 | 34085 ft | 430 kts | 326° |
| 2026-04-27 16:34 | 38.26515 | 25.33853 | 34090 ft | 430 kts | 326° |
| 2026-04-27 16:34 | 38.31542 | 25.29721 | 34099 ft | 430 kts | 326° |
| 2026-04-27 16:35 | 38.36571 | 25.25589 | 34104 ft | 430 kts | 326° |
| 2026-04-27 16:36 | 38.44066 | 25.19406 | 34099 ft | 430 kts | 326° |
| 2026-04-27 16:36 | 38.49088 | 25.15260 | 34102 ft | 429 kts | 326° |
| 2026-04-27 16:37 | 38.54107 | 25.11105 | 34106 ft | 429 kts | 326° |
| 2026-04-27 16:37 | 38.59120 | 25.06938 | 34109 ft | 429 kts | 325° |
| 2026-04-27 16:38 | 38.64133 | 25.02766 | 34109 ft | 429 kts | 325° |
| 2026-04-27 16:38 | 38.69115 | 24.98626 | 34121 ft | 429 kts | 325° |
| 2026-04-27 16:39 | 38.74116 | 24.94454 | 34121 ft | 429 kts | 325° |
| 2026-04-27 16:39 | 38.79116 | 24.90276 | 34119 ft | 429 kts | 325° |
| 2026-04-27 16:40 | 38.83302 | 24.86779 | 34117 ft | 429 kts | 325° |
| 2026-04-27 16:40 | 38.88268 | 24.82622 | 34125 ft | 428 kts | 325° |
| 2026-04-27 16:41 | 38.93259 | 24.78436 | 34119 ft | 428 kts | 325° |
| 2026-04-27 16:41 | 38.98248 | 24.74244 | 34128 ft | 428 kts | 325° |
| 2026-04-27 16:42 | 39.03227 | 24.70046 | 34126 ft | 428 kts | 325° |
| 2026-04-27 16:42 | 39.08209 | 24.65842 | 34132 ft | 428 kts | 324° |
| 2026-04-27 16:43 | 39.13193 | 24.61633 | 34148 ft | 428 kts | 324° |
| 2026-04-27 16:43 | 39.18175 | 24.57422 | 34141 ft | 428 kts | 324° |
| 2026-04-27 16:44 | 39.23158 | 24.53198 | 34135 ft | 428 kts | 324° |
| 2026-04-27 16:44 | 39.28096 | 24.49001 | 34144 ft | 428 kts | 324° |
| 2026-04-27 16:45 | 39.33073 | 24.44765 | 34143 ft | 428 kts | 324° |
| 2026-04-27 16:45 | 39.38049 | 24.40512 | 34147 ft | 428 kts | 324° |
| 2026-04-27 16:46 | 39.43020 | 24.36264 | 34161 ft | 428 kts | 324° |
| 2026-04-27 16:46 | 39.47988 | 24.32024 | 34155 ft | 427 kts | 324° |
| 2026-04-27 16:47 | 39.52947 | 24.27781 | 34156 ft | 427 kts | 324° |
| 2026-04-27 16:47 | 39.57903 | 24.23528 | 34153 ft | 427 kts | 324° |
| 2026-04-27 16:48 | 39.62850 | 24.19274 | 34169 ft | 427 kts | 324° |
| 2026-04-27 16:48 | 39.67758 | 24.15038 | 34165 ft | 426 kts | 324° |
| 2026-04-27 16:49 | 39.75169 | 24.08640 | 34165 ft | 426 kts | 324° |
| 2026-04-27 16:49 | 39.80120 | 24.04364 | 34167 ft | 426 kts | 323° |
| 2026-04-27 16:50 | 39.85055 | 24.00090 | 34175 ft | 426 kts | 323° |
| 2026-04-27 16:50 | 39.89984 | 23.95811 | 34170 ft | 426 kts | 323° |
| 2026-04-27 16:51 | 39.94916 | 23.91527 | 34162 ft | 426 kts | 323° |
| 2026-04-27 16:51 | 39.99838 | 23.87235 | 34164 ft | 426 kts | 323° |
| 2026-04-27 16:52 | 40.04764 | 23.82942 | 34162 ft | 426 kts | 323° |
| 2026-04-27 16:52 | 40.09686 | 23.78637 | 34180 ft | 426 kts | 323° |
| 2026-04-27 16:53 | 40.14605 | 23.74325 | 34170 ft | 426 kts | 324° |
| 2026-04-27 16:53 | 40.19491 | 23.70041 | 34169 ft | 425 kts | 323° |
| 2026-04-27 16:54 | 40.24402 | 23.65729 | 34167 ft | 425 kts | 323° |
| 2026-04-27 16:54 | 40.29313 | 23.61405 | 34165 ft | 425 kts | 323° |
| 2026-04-27 16:55 | 40.34217 | 23.57079 | 34165 ft | 425 kts | 323° |
| 2026-04-27 16:55 | 40.39123 | 23.52745 | 34163 ft | 425 kts | 323° |
| 2026-04-27 16:56 | 40.44026 | 23.48414 | 34162 ft | 425 kts | 323° |
| 2026-04-27 16:56 | 40.48925 | 23.44062 | 34162 ft | 425 kts | 323° |
| 2026-04-27 16:57 | 40.53827 | 23.39710 | 34170 ft | 425 kts | 324° |
| 2026-04-27 16:57 | 40.58692 | 23.35380 | 34172 ft | 424 kts | 324° |
| 2026-04-27 16:58 | 40.63571 | 23.31026 | 34171 ft | 424 kts | 324° |
| 2026-04-27 16:58 | 40.68443 | 23.26670 | 34174 ft | 423 kts | 324° |
| 2026-04-27 16:59 | 40.73321 | 23.22315 | 34172 ft | 422 kts | 324° |
| 2026-04-27 16:59 | 40.78186 | 23.17961 | 34171 ft | 422 kts | 324° |
| 2026-04-27 17:00 | 40.85467 | 23.11420 | 34183 ft | 422 kts | 324° |
| 2026-04-27 17:01 | 40.90312 | 23.07052 | 34178 ft | 421 kts | 324° |
| 2026-04-27 17:01 | 40.95141 | 23.02695 | 34174 ft | 420 kts | 324° |
| 2026-04-27 17:02 | 40.99971 | 22.98337 | 34171 ft | 420 kts | 324° |
| 2026-04-27 17:02 | 41.04788 | 22.93980 | 34164 ft | 419 kts | 323° |
| 2026-04-27 17:03 | 41.09599 | 22.89609 | 34172 ft | 419 kts | 323° |
| 2026-04-27 17:03 | 41.14406 | 22.85230 | 34170 ft | 419 kts | 323° |
| 2026-04-27 17:04 | 41.19223 | 22.80849 | 34160 ft | 419 kts | 323° |
| 2026-04-27 17:04 | 41.23975 | 22.76457 | 34141 ft | 418 kts | 319° |
| 2026-04-27 17:05 | 41.28045 | 22.71004 | 34139 ft | 415 kts | 310° |
| 2026-04-27 17:05 | 41.31943 | 22.65310 | 34139 ft | 416 kts | 310° |
| 2026-04-27 17:06 | 41.35838 | 22.59614 | 34151 ft | 416 kts | 310° |
| 2026-04-27 17:06 | 41.39726 | 22.53907 | 34138 ft | 416 kts | 310° |
| 2026-04-27 17:07 | 41.43582 | 22.48228 | 34135 ft | 416 kts | 310° |
| 2026-04-27 17:07 | 41.47467 | 22.42509 | 34130 ft | 416 kts | 310° |
| 2026-04-27 17:08 | 41.51348 | 22.36779 | 34125 ft | 416 kts | 310° |
| 2026-04-27 17:08 | 41.55225 | 22.31045 | 34110 ft | 416 kts | 310° |
| 2026-04-27 17:09 | 41.59101 | 22.25297 | 34112 ft | 416 kts | 310° |
| 2026-04-27 17:09 | 41.62976 | 22.19538 | 34112 ft | 416 kts | 310° |
| 2026-04-27 17:10 | 41.66850 | 22.13781 | 34118 ft | 416 kts | 310° |
| 2026-04-27 17:10 | 41.70698 | 22.08046 | 34112 ft | 416 kts | 310° |
| 2026-04-27 17:11 | 41.74573 | 22.02265 | 34104 ft | 417 kts | 310° |
| 2026-04-27 17:11 | 41.80367 | 21.93587 | 34094 ft | 417 kts | 309° |
| 2026-04-27 17:12 | 41.86166 | 21.84876 | 34086 ft | 417 kts | 309° |
| 2026-04-27 17:13 | 41.89998 | 21.79102 | 34091 ft | 417 kts | 309° |
| 2026-04-27 17:13 | 41.93857 | 21.73290 | 34094 ft | 417 kts | 309° |
| 2026-04-27 17:14 | 41.97715 | 21.67460 | 34088 ft | 417 kts | 309° |
| 2026-04-27 17:14 | 42.01565 | 21.61630 | 34083 ft | 417 kts | 309° |
| 2026-04-27 17:15 | 42.05414 | 21.55791 | 34115 ft | 417 kts | 309° |
| 2026-04-27 17:15 | 42.09257 | 21.49944 | 34116 ft | 417 kts | 309° |
| 2026-04-27 17:16 | 42.13097 | 21.44085 | 34115 ft | 417 kts | 309° |
| 2026-04-27 17:16 | 42.16906 | 21.38259 | 34119 ft | 417 kts | 309° |
| 2026-04-27 17:17 | 42.20676 | 21.32316 | 34129 ft | 417 kts | 308° |
| 2026-04-27 17:17 | 42.24416 | 21.26334 | 34130 ft | 417 kts | 308° |
| 2026-04-27 17:18 | 42.30042 | 21.17379 | 34129 ft | 417 kts | 308° |
| 2026-04-27 17:18 | 42.33800 | 21.11400 | 34136 ft | 417 kts | 309° |
| 2026-04-27 17:19 | 42.37551 | 21.05411 | 34129 ft | 417 kts | 309° |
| 2026-04-27 17:19 | 42.41297 | 20.99412 | 34130 ft | 418 kts | 308° |
| 2026-04-27 17:20 | 42.45017 | 20.93439 | 34130 ft | 417 kts | 308° |
| 2026-04-27 17:20 | 42.48759 | 20.87419 | 34135 ft | 418 kts | 309° |
| 2026-04-27 17:21 | 42.52505 | 20.81388 | 34130 ft | 418 kts | 309° |
| 2026-04-27 17:21 | 42.56244 | 20.75357 | 34126 ft | 418 kts | 309° |
| 2026-04-27 17:22 | 42.59987 | 20.69306 | 34116 ft | 418 kts | 309° |
| 2026-04-27 17:22 | 42.63726 | 20.63241 | 34115 ft | 419 kts | 309° |
| 2026-04-27 17:23 | 42.67464 | 20.57166 | 34115 ft | 419 kts | 309° |
| 2026-04-27 17:23 | 42.71195 | 20.51084 | 34114 ft | 419 kts | 309° |
| 2026-04-27 17:24 | 42.74930 | 20.45003 | 34110 ft | 419 kts | 309° |
| 2026-04-27 17:24 | 42.78644 | 20.38944 | 34123 ft | 419 kts | 309° |
| 2026-04-27 17:25 | 42.82382 | 20.32829 | 34119 ft | 420 kts | 311° |
| 2026-04-27 17:25 | 42.86802 | 20.27634 | 34117 ft | 421 kts | 322° |
| 2026-04-27 17:26 | 42.91477 | 20.22830 | 34117 ft | 421 kts | 322° |
| 2026-04-27 17:26 | 42.96151 | 20.18011 | 34114 ft | 421 kts | 322° |
| 2026-04-27 17:27 | 43.00829 | 20.13184 | 34107 ft | 421 kts | 322° |
| 2026-04-27 17:27 | 43.04709 | 20.09161 | 34112 ft | 421 kts | 322° |
| 2026-04-27 17:28 | 43.10126 | 20.03527 | 34108 ft | 421 kts | 322° |
| 2026-04-27 17:29 | 43.16348 | 19.97063 | 34113 ft | 421 kts | 322° |
| 2026-04-27 17:29 | 43.21012 | 19.92201 | 34106 ft | 421 kts | 322° |
| 2026-04-27 17:30 | 43.25670 | 19.87330 | 34118 ft | 421 kts | 322° |
| 2026-04-27 17:30 | 43.32654 | 19.80009 | 34105 ft | 420 kts | 323° |
| 2026-04-27 17:31 | 43.37306 | 19.75135 | 34115 ft | 420 kts | 322° |
| 2026-04-27 17:31 | 43.41946 | 19.70253 | 34110 ft | 420 kts | 322° |
| 2026-04-27 17:32 | 43.48882 | 19.62940 | 34117 ft | 420 kts | 322° |
| 2026-04-27 17:33 | 43.53520 | 19.58034 | 34117 ft | 420 kts | 323° |
| 2026-04-27 17:33 | 43.58151 | 19.53119 | 34112 ft | 420 kts | 323° |
| 2026-04-27 17:34 | 43.62785 | 19.48203 | 34111 ft | 420 kts | 323° |
| 2026-04-27 17:34 | 43.67417 | 19.43279 | 34107 ft | 420 kts | 323° |
| 2026-04-27 17:35 | 43.72014 | 19.38381 | 34126 ft | 419 kts | 323° |
| 2026-04-27 17:35 | 43.76632 | 19.33452 | 34122 ft | 419 kts | 323° |
| 2026-04-27 17:36 | 43.81251 | 19.28516 | 34127 ft | 418 kts | 323° |
| 2026-04-27 17:36 | 43.85840 | 19.23583 | 34121 ft | 418 kts | 323° |
| 2026-04-27 17:37 | 43.90432 | 19.18643 | 34127 ft | 417 kts | 323° |
| 2026-04-27 17:37 | 43.95018 | 19.13705 | 34125 ft | 417 kts | 323° |
| 2026-04-27 17:38 | 43.99606 | 19.08766 | 34113 ft | 417 kts | 323° |
| 2026-04-27 17:38 | 44.04193 | 19.03814 | 34117 ft | 417 kts | 323° |
| 2026-04-27 17:39 | 44.08739 | 18.98883 | 34120 ft | 417 kts | 323° |
| 2026-04-27 17:39 | 44.13313 | 18.93918 | 34123 ft | 417 kts | 323° |
| 2026-04-27 17:40 | 44.17889 | 18.88943 | 34117 ft | 417 kts | 323° |
| 2026-04-27 17:40 | 44.22462 | 18.83956 | 34128 ft | 417 kts | 323° |
| 2026-04-27 17:41 | 44.27027 | 18.78975 | 34126 ft | 417 kts | 323° |
| 2026-04-27 17:41 | 44.31593 | 18.73981 | 34130 ft | 417 kts | 323° |
| 2026-04-27 17:42 | 44.36150 | 18.68988 | 34135 ft | 417 kts | 323° |
| 2026-04-27 17:42 | 44.40677 | 18.64020 | 34134 ft | 416 kts | 323° |
| 2026-04-27 17:43 | 44.45233 | 18.58999 | 34148 ft | 416 kts | 323° |
| 2026-04-27 17:43 | 44.49777 | 18.53986 | 34147 ft | 416 kts | 323° |
| 2026-04-27 17:44 | 44.54317 | 18.48964 | 34141 ft | 415 kts | 323° |
| 2026-04-27 17:44 | 44.58849 | 18.43947 | 34140 ft | 415 kts | 323° |
| 2026-04-27 17:45 | 44.63381 | 18.38915 | 34129 ft | 415 kts | 322° |
| 2026-04-27 17:45 | 44.67909 | 18.33888 | 34148 ft | 415 kts | 322° |
| 2026-04-27 17:46 | 44.72434 | 18.28850 | 34143 ft | 414 kts | 322° |
| 2026-04-27 17:46 | 44.76948 | 18.23807 | 34143 ft | 414 kts | 322° |
| 2026-04-27 17:47 | 44.81430 | 18.18787 | 34144 ft | 414 kts | 322° |
| 2026-04-27 17:47 | 44.85933 | 18.13730 | 34125 ft | 414 kts | 322° |
| 2026-04-27 17:48 | 44.90440 | 18.08669 | 34131 ft | 414 kts | 322° |
| 2026-04-27 17:48 | 44.94945 | 18.03596 | 34147 ft | 414 kts | 322° |
| 2026-04-27 17:49 | 44.99447 | 17.98525 | 34146 ft | 414 kts | 322° |
| 2026-04-27 17:49 | 45.03945 | 17.93450 | 34145 ft | 413 kts | 322° |
| 2026-04-27 17:50 | 45.08436 | 17.88362 | 34127 ft | 413 kts | 322° |
| 2026-04-27 17:50 | 45.15174 | 17.80696 | 34127 ft | 414 kts | 322° |
| 2026-04-27 17:51 | 45.19644 | 17.75608 | 34142 ft | 414 kts | 322° |
| 2026-04-27 17:51 | 45.24136 | 17.70487 | 34144 ft | 414 kts | 322° |
| 2026-04-27 17:52 | 45.28629 | 17.65357 | 34148 ft | 414 kts | 322° |
| 2026-04-27 17:52 | 45.33107 | 17.60214 | 34132 ft | 414 kts | 321° |
| 2026-04-27 17:53 | 45.37589 | 17.55055 | 34132 ft | 414 kts | 321° |
| 2026-04-27 17:53 | 45.42075 | 17.49892 | 34133 ft | 415 kts | 321° |
| 2026-04-27 17:54 | 45.46564 | 17.44724 | 34134 ft | 415 kts | 321° |
| 2026-04-27 17:54 | 45.51054 | 17.39541 | 34133 ft | 415 kts | 321° |
| 2026-04-27 17:55 | 45.55536 | 17.34347 | 34121 ft | 415 kts | 321° |
| 2026-04-27 17:55 | 45.59987 | 17.29186 | 34125 ft | 415 kts | 321° |
| 2026-04-27 17:56 | 45.64467 | 17.23986 | 34127 ft | 415 kts | 321° |
| 2026-04-27 17:56 | 45.68943 | 17.18778 | 34146 ft | 415 kts | 321° |
| 2026-04-27 17:57 | 45.73413 | 17.13550 | 34143 ft | 414 kts | 321° |
| 2026-04-27 17:57 | 45.77861 | 17.08340 | 34126 ft | 414 kts | 321° |
| 2026-04-27 17:58 | 45.82316 | 17.03111 | 34127 ft | 414 kts | 321° |
| 2026-04-27 17:58 | 45.86776 | 16.97869 | 34127 ft | 414 kts | 321° |
| 2026-04-27 17:59 | 45.91235 | 16.92619 | 34128 ft | 414 kts | 321° |
| 2026-04-27 17:59 | 45.95686 | 16.87360 | 34139 ft | 414 kts | 321° |
| 2026-04-27 18:00 | 46.00135 | 16.82095 | 34126 ft | 414 kts | 321° |
| 2026-04-27 18:00 | 46.04577 | 16.76827 | 34127 ft | 414 kts | 321° |
| 2026-04-27 18:01 | 46.09032 | 16.71540 | 34128 ft | 414 kts | 321° |
| 2026-04-27 18:01 | 46.13448 | 16.66285 | 34127 ft | 414 kts | 321° |
| 2026-04-27 18:02 | 46.17892 | 16.60979 | 34141 ft | 414 kts | 321° |
| 2026-04-27 18:02 | 46.22332 | 16.55671 | 34138 ft | 414 kts | 321° |
| 2026-04-27 18:03 | 46.26761 | 16.50358 | 34147 ft | 413 kts | 321° |
| 2026-04-27 18:03 | 46.31177 | 16.45044 | 34148 ft | 413 kts | 321° |
| 2026-04-27 18:04 | 46.35590 | 16.39743 | 34145 ft | 412 kts | 321° |
| 2026-04-27 18:04 | 46.39977 | 16.34465 | 34147 ft | 412 kts | 320° |
| 2026-04-27 18:05 | 46.44379 | 16.29136 | 34160 ft | 412 kts | 320° |
| 2026-04-27 18:05 | 46.48771 | 16.23802 | 34149 ft | 411 kts | 320° |
| 2026-04-27 18:06 | 46.53160 | 16.18473 | 34148 ft | 411 kts | 320° |
| 2026-04-27 18:06 | 46.57551 | 16.13143 | 34146 ft | 411 kts | 320° |
| 2026-04-27 18:07 | 46.61933 | 16.07815 | 34139 ft | 411 kts | 320° |
| 2026-04-27 18:07 | 46.66308 | 16.02458 | 34138 ft | 411 kts | 320° |
| 2026-04-27 18:08 | 46.70673 | 15.97094 | 34165 ft | 410 kts | 320° |
| 2026-04-27 18:08 | 46.75035 | 15.91752 | 34162 ft | 409 kts | 320° |
| 2026-04-27 18:09 | 46.79385 | 15.86399 | 34163 ft | 408 kts | 320° |
| 2026-04-27 18:09 | 46.83721 | 15.81049 | 34156 ft | 408 kts | 320° |
| 2026-04-27 18:10 | 46.88027 | 15.75733 | 34148 ft | 407 kts | 320° |
| 2026-04-27 18:10 | 46.92353 | 15.70373 | 34129 ft | 407 kts | 319° |
| 2026-04-27 18:11 | 46.96673 | 15.65015 | 34151 ft | 407 kts | 319° |
| 2026-04-27 18:11 | 47.00983 | 15.59650 | 34147 ft | 406 kts | 319° |
| 2026-04-27 18:12 | 47.05287 | 15.54289 | 34140 ft | 406 kts | 319° |
| 2026-04-27 18:12 | 47.09585 | 15.48910 | 34138 ft | 406 kts | 319° |
| 2026-04-27 18:13 | 47.13879 | 15.43539 | 34148 ft | 405 kts | 319° |
| 2026-04-27 18:13 | 47.18143 | 15.38187 | 34127 ft | 406 kts | 319° |
| 2026-04-27 18:14 | 47.22445 | 15.32790 | 34133 ft | 407 kts | 319° |
| 2026-04-27 18:14 | 47.26755 | 15.27367 | 34133 ft | 407 kts | 319° |
| 2026-04-27 18:15 | 47.31057 | 15.21931 | 34137 ft | 408 kts | 319° |
| 2026-04-27 18:15 | 47.35362 | 15.16477 | 34138 ft | 408 kts | 318° |
| 2026-04-27 18:16 | 47.38931 | 15.11943 | 34115 ft | 408 kts | 318° |
| 2026-04-27 18:16 | 47.43238 | 15.06473 | 34117 ft | 409 kts | 318° |
| 2026-04-27 18:17 | 47.47560 | 15.00970 | 34136 ft | 410 kts | 318° |
| 2026-04-27 18:17 | 47.51886 | 14.95454 | 34132 ft | 411 kts | 318° |
| 2026-04-27 18:18 | 47.56210 | 14.89926 | 34138 ft | 411 kts | 318° |
| 2026-04-27 18:18 | 47.60529 | 14.84373 | 34138 ft | 411 kts | 317° |
| 2026-04-27 18:19 | 47.64851 | 14.78807 | 34152 ft | 410 kts | 317° |
| 2026-04-27 18:19 | 47.69127 | 14.73302 | 34152 ft | 409 kts | 317° |
| 2026-04-27 18:20 | 47.73413 | 14.67753 | 34182 ft | 408 kts | 317° |
| 2026-04-27 18:20 | 47.77690 | 14.62227 | 34177 ft | 406 kts | 317° |
| 2026-04-27 18:21 | 47.81957 | 14.56712 | 34170 ft | 405 kts | 317° |
| 2026-04-27 18:21 | 47.86173 | 14.51234 | 34164 ft | 405 kts | 317° |
| 2026-04-27 18:22 | 47.90410 | 14.45712 | 34145 ft | 405 kts | 317° |
| 2026-04-27 18:22 | 47.94599 | 14.40098 | 34140 ft | 405 kts | 316° |
| 2026-04-27 18:23 | 47.98726 | 14.34366 | 34130 ft | 404 kts | 315° |
| 2026-04-27 18:23 | 48.02842 | 14.28636 | 34131 ft | 405 kts | 315° |
| 2026-04-27 18:24 | 48.06971 | 14.22918 | 34128 ft | 405 kts | 316° |
| 2026-04-27 18:24 | 48.11075 | 14.17217 | 34127 ft | 405 kts | 315° |